Wednesday, February 21, 2018, 8:14 PM EST
Back to Local

KFME, Fort Meade / Tipton

Location: Laurel, MD, United States Lat: 39.083
Local Time: 8:14 PM EST ( 1:14 GMT) Lon: -76.767
Time Zone: US/Eastern Elev: 150 ft

Show me the last for .
Show Decoded

2018-02-21 19:57 METAR KFME 220057Z AUTO 22007KT 10SM CLR 23/15 A3033 RMK AO1 =
2018-02-21 19:15 METAR KFME 220015Z AUTO 22006KT 10SM SCT065 23/15 A3032 RMK AO1 =
2018-02-21 18:57 METAR KFME 212357Z AUTO 22007KT 170V230 10SM CLR 23/15 A3031 RMK AO1 =
2018-02-21 18:36 METAR KFME 212336Z AUTO 22006KT 10SM CLR 23/15 A3030 RMK AO1 =
2018-02-21 18:15 METAR KFME 212315Z AUTO 21006KT 10SM CLR 23/15 A3030 RMK AO1 =
2018-02-21 17:57 METAR KFME 212257Z AUTO 21008KT 10SM CLR 24/15 A3029 RMK AO1 =
2018-02-21 17:36 METAR KFME 212236Z AUTO 22010G15KT 10SM CLR 25/15 A3028 RMK AO1 =
2018-02-21 17:15 METAR KFME 212215Z AUTO 22010G14KT 10SM CLR 25/15 A3027 RMK AO1 =
2018-02-21 16:36 METAR KFME 212136Z AUTO 22008G14KT 10SM CLR 26/15 A3026 RMK AO1 =
2018-02-21 16:15 METAR KFME 212115Z AUTO 22008KT 10SM CLR 26/15 A3026 RMK AO1 =
2018-02-21 15:15 METAR KFME 212015Z AUTO 23010G21KT 10SM BKN110 26/16 A3027 RMK AO1 =
2018-02-21 14:57 METAR KFME 211957Z AUTO 23011G18KT 190V250 10SM BKN110 25/16 A3027 RMK AO1 =
2018-02-21 14:36 METAR KFME 211936Z AUTO 20014G20KT 10SM SCT110 26/16 A3028 RMK AO1 =
2018-02-21 14:15 METAR KFME 211915Z AUTO 21012G19KT 10SM BKN110 25/16 A3028 RMK AO1 =
2018-02-21 13:57 METAR KFME 211857Z AUTO 20014G20KT 10SM SCT110 26/16 A3029 RMK AO1 =
2018-02-21 13:36 METAR KFME 211836Z AUTO 21011G18KT 180V240 10SM CLR 26/16 A3029 RMK AO1 =
2018-02-21 13:15 METAR KFME 211815Z AUTO 22010G18KT 10SM CLR 25/16 A3030 RMK AO1 =
2018-02-21 12:57 METAR KFME 211757Z AUTO 22012G19KT 10SM CLR 25/16 A3031 RMK AO1 =
2018-02-21 12:36 METAR KFME 211736Z AUTO 23012G22KT 10SM CLR 25/16 A3031 RMK AO1 =
2018-02-21 12:15 METAR KFME 211715Z AUTO 22012G20KT 10SM CLR 23/16 A3032 RMK AO1 =
2018-02-21 11:57 METAR KFME 211657Z AUTO 22012G22KT 10SM CLR 23/16 A3033 RMK AO1 =
2018-02-21 11:36 METAR KFME 211636Z AUTO 21011G17KT 10SM CLR 23/16 A3034 RMK AO1 =
2018-02-21 11:15 METAR KFME 211615Z AUTO 22014G21KT 10SM CLR 22/16 A3034 RMK AO1 =
2018-02-21 10:57 METAR KFME 211557Z AUTO 23015G20KT 10SM CLR 22/16 A3035 RMK AO1 =
2018-02-21 10:36 METAR KFME 211536Z AUTO 21013G17KT 10SM SCT018 21/16 A3035 RMK AO1 =
2018-02-21 10:15 METAR KFME 211515Z AUTO 22014G18KT 10SM SCT018 SCT100 21/16 A3036 RMK AO1 =
2018-02-21 09:57 METAR KFME 211457Z AUTO 23013G21KT 10SM BKN016 BKN100 20/16 A3037 RMK AO1 =
2018-02-21 09:36 METAR KFME 211436Z AUTO 21014G19KT 190V250 10SM BKN014 BKN020 19/15 A3037 RMK
                 AO1 =
2018-02-21 09:15 METAR KFME 211415Z AUTO 22015G23KT 10SM SCT014 SCT020 BKN090 18/15 A3037 RMK AO1
                 =
2018-02-21 08:57 METAR KFME 211357Z AUTO 22013G20KT 10SM CLR 18/15 A3037 RMK AO1 =
2018-02-21 08:36 METAR KFME 211336Z AUTO 22010G15KT 10SM CLR 18/15 A3036 RMK AO1 =
2018-02-21 08:15 METAR KFME 211315Z AUTO 22006G17KT 10SM CLR 17/15 A3036 RMK AO1 =
2018-02-21 07:57 METAR KFME 211257Z AUTO 22006KT 10SM CLR 17/15 A3035 RMK AO1 =
2018-02-21 07:36 METAR KFME 211236Z AUTO 22007KT 10SM CLR 16/15 A3035 RMK AO1 =
2018-02-21 07:15 METAR KFME 211215Z AUTO 22006KT 10SM CLR 16/14 A3034 RMK AO1 =
2018-02-21 06:57 METAR KFME 211157Z AUTO 22006KT 10SM CLR 16/15 A3034 RMK AO1 =
2018-02-21 06:36 METAR KFME 211136Z AUTO 23010G14KT 10SM CLR 16/15 A3034 RMK AO1 =
2018-02-21 06:15 METAR KFME 211115Z AUTO 22007KT 10SM CLR 16/14 A3034 RMK AO1 =
2018-02-21 05:57 METAR KFME 211057Z AUTO 22007KT 190V250 10SM CLR 16/15 A3034 RMK AO1 =
2018-02-21 05:36 METAR KFME 211036Z AUTO 21008KT 10SM CLR 16/14 A3034 RMK AO1 =
2018-02-21 05:15 METAR KFME 211015Z AUTO 22008KT 170V230 10SM CLR 15/13 A3033 RMK AO1 =
2018-02-21 04:57 METAR KFME 210957Z AUTO 21007KT 170V230 10SM CLR 15/13 A3033 RMK AO1 =
2018-02-21 04:36 METAR KFME 210936Z AUTO 20006KT 10SM CLR 15/13 A3033 RMK AO1 =
2018-02-21 04:15 METAR KFME 210915Z AUTO 20005KT 10SM CLR 15/13 A3033 RMK AO1 =
2018-02-21 03:57 METAR KFME 210857Z AUTO 21005KT 10SM CLR 14/13 A3034 RMK AO1 =
2018-02-21 03:36 METAR KFME 210836Z AUTO 20004KT 10SM CLR 15/13 A3034 RMK AO1 =
2018-02-21 03:15 METAR KFME 210815Z AUTO 21003KT 10SM CLR 15/13 A3034 RMK AO1 =
2018-02-21 02:57 METAR KFME 210757Z AUTO 20004KT 10SM CLR 15/13 A3034 RMK AO1 =
2018-02-21 02:36 METAR KFME 210736Z AUTO 21004KT 10SM CLR 15/13 A3034 RMK AO1 =
2018-02-21 02:15 METAR KFME 210715Z AUTO 21004KT 10SM CLR 15/13 A3034 RMK AO1 =
2018-02-21 01:57 METAR KFME 210657Z AUTO 21004KT 10SM CLR 16/13 A3035 RMK AO1 =
2018-02-21 01:36 METAR KFME 210636Z AUTO 22007KT 10SM CLR 16/13 A3035 RMK AO1 =
2018-02-21 01:15 METAR KFME 210615Z AUTO 22007KT 10SM CLR 16/13 A3034 RMK AO1 =
2018-02-21 00:57 METAR KFME 210557Z AUTO 21006KT 10SM CLR 16/13 A3035 RMK AO1 =
2018-02-21 00:36 METAR KFME 210536Z AUTO 20007KT 10SM CLR 16/13 A3035 RMK AO1 =
2018-02-21 00:15 METAR KFME 210515Z AUTO 22006KT 10SM CLR 17/13 A3035 RMK AO1 =
2018-02-20 23:57 METAR KFME 210457Z AUTO 21008KT 10SM CLR 16/13 A3035 RMK AO1 =
2018-02-20 23:36 METAR KFME 210436Z AUTO 20005KT 10SM CLR 16/13 A3035 RMK AO1 =
2018-02-20 23:15 METAR KFME 210415Z AUTO 21005KT 10SM CLR 16/13 A3035 RMK AO1 =
2018-02-20 22:57 METAR KFME 210357Z AUTO 20005KT 10SM CLR 17/13 A3035 RMK AO1 =
2018-02-20 22:36 METAR KFME 210336Z AUTO 19006KT 10SM CLR 16/12 A3035 RMK AO1 =
2018-02-20 22:15 METAR KFME 210315Z AUTO 21005KT 10SM CLR 17/12 A3035 RMK AO1 =
2018-02-20 21:57 METAR KFME 210257Z AUTO 19005KT 10SM CLR 17/12 A3035 RMK AO1 =
2018-02-20 21:36 METAR KFME 210236Z AUTO 20007KT 10SM CLR 18/13 A3035 RMK AO1 =
2018-02-20 21:15 METAR KFME 210215Z AUTO 22007KT 10SM CLR 17/12 A3035 RMK AO1 =
2018-02-20 20:57 METAR KFME 210157Z AUTO 21007KT 10SM CLR 16/12 A3034 RMK AO1 =
2018-02-20 20:36 METAR KFME 210136Z AUTO 21008KT 10SM CLR 14/11 A3034 RMK AO1 =
2018-02-20 20:15 METAR KFME 210115Z AUTO 00000KT 10SM CLR 14/12 A3035 RMK AO1 =

Support USWX by starting your Amazon purchase here.